createdAt,value
2023-02-13T10:01:32.300Z,15.27
2023-02-13T10:04:01.959Z,14.40
2023-02-13T10:06:49.772Z,15.10
2023-02-13T10:09:34.649Z,14.98
2023-02-13T10:12:14.683Z,14.60
2023-02-13T10:15:26.035Z,14.25
2023-02-13T10:18:02.961Z,14.25
2023-02-13T10:20:36.432Z,11.65
2023-02-13T10:23:08.477Z,15.13
2023-02-13T10:25:54.818Z,13.90
2023-02-13T10:29:23.208Z,13.70
2023-02-13T10:31:55.104Z,12.95
2023-02-13T10:34:25.164Z,14.25
2023-02-13T10:36:52.070Z,14.10
2023-02-13T10:39:30.232Z,14.98
2023-02-13T10:42:18.492Z,13.88
2023-02-13T10:45:19.099Z,14.98
2023-02-13T10:48:01.826Z,14.07
2023-02-13T10:50:56.250Z,15.02
2023-02-13T10:53:22.791Z,14.10
2023-02-13T10:56:17.567Z,14.93
2023-02-13T10:59:08.927Z,13.07
2023-02-13T11:01:56.346Z,13.98
2023-02-13T11:04:23.304Z,12.90
2023-02-13T11:06:59.595Z,14.85
2023-02-13T11:09:27.267Z,15.05
2023-02-13T11:11:54.346Z,13.45
2023-02-13T11:14:27.274Z,13.02
2023-02-13T11:17:06.338Z,13.40
2023-02-13T11:19:46.399Z,14.02
2023-02-13T11:22:16.027Z,13.38
2023-02-13T11:24:53.139Z,13.45
2023-02-13T11:27:26.660Z,13.43
2023-02-13T11:30:02.228Z,13.43
2023-02-13T11:32:30.926Z,13.35
2023-02-13T11:34:58.880Z,13.40
2023-02-13T11:37:30.371Z,13.18
2023-02-13T11:39:59.328Z,12.73
2023-02-13T11:42:30.373Z,12.75
2023-02-13T11:45:20.573Z,13.52
2023-02-13T11:47:47.908Z,13.60
2023-02-13T11:50:35.036Z,13.23
2023-02-13T11:53:06.229Z,13.13
2023-02-13T11:55:36.506Z,13.52
2023-02-13T11:58:28.118Z,12.57
2023-02-13T12:01:23.376Z,14.23
2023-02-13T12:04:17.356Z,13.18
2023-02-13T12:07:12.138Z,13.98
2023-02-13T12:09:40.317Z,12.90
2023-02-13T12:12:11.885Z,13.35
2023-02-13T12:14:42.699Z,12.77
2023-02-13T12:17:29.244Z,12.77
2023-02-13T12:19:58.017Z,13.05
2023-02-13T12:22:54.000Z,11.95
2023-02-13T12:25:27.024Z,13.00
2023-02-13T12:28:14.785Z,12.43
2023-02-13T12:31:02.174Z,12.50
2023-02-13T12:33:34.738Z,12.23
2023-02-13T12:36:19.626Z,13.90
2023-02-13T12:39:00.479Z,12.45
2023-02-13T12:41:33.025Z,13.05
2023-02-13T12:44:06.531Z,12.30
2023-02-13T12:47:07.472Z,13.10
2023-02-13T12:50:07.845Z,12.80
2023-02-13T12:53:06.414Z,11.70
2023-02-13T12:55:52.733Z,12.32
2023-02-13T12:58:43.258Z,12.00
2023-02-13T13:01:19.253Z,12.35
2023-02-13T13:03:57.460Z,12.18
2023-02-13T13:06:57.804Z,12.50
2023-02-13T13:10:01.729Z,12.98
2023-02-13T13:12:42.432Z,11.65
2023-02-13T13:15:30.139Z,12.82
2023-02-13T13:18:05.050Z,12.18
2023-02-13T13:20:52.025Z,12.52
2023-02-13T13:23:40.003Z,12.20
2023-02-13T13:26:25.908Z,12.13
2023-02-13T13:28:58.074Z,13.10
2023-02-13T13:31:26.622Z,12.20
2023-02-13T13:33:58.702Z,12.30
2023-02-13T13:36:34.626Z,12.05
2023-02-13T13:39:19.344Z,13.70
2023-02-13T13:44:43.078Z,12.65
2023-02-13T13:47:25.015Z,13.13
2023-02-13T13:49:56.431Z,12.55
2023-02-13T13:52:29.008Z,12.77
2023-02-13T13:54:57.853Z,13.02
2023-02-13T13:58:13.625Z,13.13
2023-02-13T14:00:40.253Z,12.63
2023-02-13T14:03:35.326Z,13.10
2023-02-13T14:06:11.015Z,12.52
2023-02-13T14:08:40.465Z,13.50
2023-02-13T14:11:27.573Z,12.70
2023-02-13T14:13:54.446Z,12.93
2023-02-13T14:16:41.761Z,13.43
2023-02-13T14:19:24.290Z,12.27
2023-02-13T14:21:51.099Z,13.27
2023-02-13T14:24:19.855Z,13.00
2023-02-13T14:27:05.225Z,12.57
2023-02-13T14:29:34.552Z,12.75
2023-02-13T14:32:19.865Z,13.23
2023-02-13T14:35:05.897Z,13.43
2023-02-13T14:37:39.997Z,11.77
2023-02-13T14:40:15.882Z,12.75
2023-02-13T14:42:45.254Z,12.95
2023-02-13T14:45:17.328Z,12.48
2023-02-13T14:47:53.361Z,13.32
2023-02-13T14:50:37.857Z,12.65
2023-02-13T14:55:42.389Z,12.15
2023-02-13T14:58:15.993Z,13.20
2023-02-13T15:01:27.919Z,11.88
2023-02-13T15:04:00.569Z,12.25
2023-02-13T15:06:33.107Z,11.98
2023-02-13T15:09:02.607Z,12.65
2023-02-13T15:11:42.892Z,13.18
2023-02-13T15:14:38.819Z,12.00
2023-02-13T15:17:17.958Z,12.05
2023-02-13T15:19:47.473Z,12.15
2023-02-13T15:22:35.574Z,11.43
2023-02-13T15:25:03.274Z,11.95
2023-02-13T15:27:32.744Z,12.00
2023-02-13T15:30:23.789Z,11.98
2023-02-13T15:32:59.553Z,11.90
2023-02-13T15:35:35.104Z,11.88
2023-02-13T15:38:28.542Z,12.23
2023-02-13T15:41:04.717Z,11.63
2023-02-13T15:43:55.821Z,12.20
2023-02-13T15:46:35.139Z,14.40
2023-02-13T15:49:06.711Z,14.45
2023-02-13T15:51:34.700Z,14.63
2023-02-13T15:54:04.954Z,13.55
2023-02-13T15:56:32.816Z,13.30
2023-02-13T15:59:00.798Z,12.48
2023-02-13T16:01:28.773Z,13.05
2023-02-13T16:04:16.514Z,12.57
2023-02-13T16:06:45.668Z,13.32
2023-02-13T16:09:34.444Z,12.45
2023-02-13T16:12:23.018Z,12.25
2023-02-13T16:15:03.262Z,12.98
2023-02-13T16:17:33.072Z,12.38
2023-02-13T16:20:16.646Z,13.10
2023-02-13T16:22:51.403Z,12.50
2023-02-13T16:25:28.696Z,13.05
2023-02-13T16:28:01.204Z,13.23
2023-02-13T16:30:58.482Z,12.50
2023-02-13T16:33:41.973Z,12.65
2023-02-13T16:36:11.641Z,13.00
2023-02-13T16:38:44.646Z,12.07
2023-02-13T16:41:23.082Z,13.02
2023-02-13T16:43:51.921Z,12.43
2023-02-13T16:46:28.570Z,12.70
2023-02-13T16:49:00.838Z,12.10
2023-02-13T16:51:30.520Z,12.30
2023-02-13T16:54:21.385Z,12.18
2023-02-13T16:56:51.512Z,11.40
2023-02-13T16:59:48.546Z,12.13
2023-02-13T17:02:16.749Z,12.68
2023-02-13T17:04:49.519Z,12.23
2023-02-13T17:07:25.874Z,11.57
2023-02-13T17:09:54.998Z,11.65
2023-02-13T17:12:22.562Z,11.10
2023-02-13T17:14:49.392Z,11.15
2023-02-13T17:17:20.771Z,11.35
2023-02-13T17:19:48.412Z,11.27
2023-02-13T17:22:35.326Z,11.73
2023-02-13T17:25:03.713Z,11.80
2023-02-13T17:27:30.716Z,11.48
2023-02-13T17:29:57.460Z,11.35
2023-02-13T17:32:26.337Z,12.15
2023-02-13T17:34:53.034Z,11.23
2023-02-13T17:37:25.132Z,11.48
2023-02-13T17:39:52.508Z,11.25
2023-02-13T17:42:25.163Z,11.10
2023-02-13T17:44:53.298Z,11.05
2023-02-13T17:47:20.250Z,11.90
2023-02-13T17:49:47.827Z,11.80
2023-02-13T17:52:20.667Z,11.68
2023-02-13T17:54:48.278Z,10.48
2023-02-13T17:57:17.125Z,11.25
2023-02-13T17:59:44.469Z,11.63
2023-02-13T18:02:20.510Z,11.95
2023-02-13T18:04:47.763Z,11.93
2023-02-13T18:07:19.632Z,11.77
2023-02-13T18:09:46.911Z,11.55
2023-02-13T18:12:19.330Z,11.75
2023-02-13T18:14:46.148Z,12.90
2023-02-13T18:17:13.368Z,11.68
2023-02-13T18:19:40.656Z,11.70
2023-02-13T18:22:08.687Z,11.57
2023-02-13T18:24:37.939Z,11.68
2023-02-13T18:27:04.961Z,11.30
2023-02-13T18:29:31.715Z,12.68
2023-02-13T18:31:58.453Z,17.45
2023-02-13T18:34:25.250Z,15.65
2023-02-13T18:36:51.914Z,12.73
2023-02-13T18:39:18.570Z,12.13
2023-02-13T18:41:45.385Z,13.32
2023-02-13T18:44:17.312Z,13.77
2023-02-13T18:46:50.056Z,12.50
2023-02-13T18:49:16.898Z,11.70
2023-02-13T18:51:44.423Z,10.48
2023-02-13T18:54:11.439Z,11.23
2023-02-13T18:56:38.088Z,11.57
2023-02-13T18:59:04.937Z,11.73
2023-02-13T19:01:31.723Z,11.82
2023-02-13T19:03:58.435Z,12.23
2023-02-13T19:06:25.764Z,11.35
2023-02-13T19:08:52.575Z,12.80
2023-02-13T19:11:23.324Z,11.90
2023-02-13T19:13:54.547Z,11.73
2023-02-13T19:16:21.785Z,12.20
2023-02-13T19:18:54.606Z,12.15
2023-02-13T19:21:24.588Z,12.50
2023-02-13T19:23:52.424Z,11.98
2023-02-13T19:26:22.374Z,12.48
2023-02-13T19:28:49.811Z,13.13
2023-02-13T19:31:20.125Z,12.90
2023-02-13T19:33:47.692Z,13.75
2023-02-13T19:36:19.509Z,12.68
2023-02-13T19:38:47.151Z,12.93
2023-02-13T19:41:17.096Z,12.77
2023-02-13T19:43:50.779Z,12.32
2023-02-13T19:46:19.905Z,11.95
2023-02-13T19:48:46.912Z,12.00
2023-02-13T19:51:16.504Z,12.18
2023-02-13T19:53:44.824Z,11.38
2023-02-13T19:56:12.583Z,11.55
2023-02-13T19:58:40.828Z,11.50
2023-02-13T20:01:14.525Z,11.80
2023-02-13T20:03:42.285Z,11.77
2023-02-13T20:06:12.650Z,11.48
2023-02-13T20:08:40.905Z,11.82
2023-02-13T20:11:14.093Z,11.80
2023-02-13T20:13:42.333Z,11.55
2023-02-13T20:16:12.100Z,11.63
2023-02-13T20:18:39.321Z,12.10
2023-02-13T20:21:10.317Z,11.57
2023-02-13T20:23:37.598Z,10.95
2023-02-13T20:26:10.824Z,11.55
2023-02-13T20:28:38.006Z,12.15
2023-02-13T20:31:19.536Z,12.32
2023-02-13T20:33:47.517Z,12.38
2023-02-13T20:36:17.226Z,12.68
2023-02-13T20:38:44.044Z,12.77
2023-02-13T20:41:21.607Z,11.68
2023-02-13T20:43:48.901Z,12.07
2023-02-13T20:46:16.089Z,11.43
2023-02-13T20:48:45.083Z,11.18
2023-02-13T20:51:13.245Z,12.15
2023-02-13T20:53:40.684Z,11.95
2023-02-13T20:56:16.033Z,12.45
2023-02-13T20:58:44.055Z,12.07
2023-02-13T21:01:24.776Z,12.60
2023-02-13T21:03:56.129Z,12.05
2023-02-13T21:06:28.251Z,11.95
2023-02-13T21:08:55.513Z,11.73
2023-02-13T21:11:23.280Z,11.07
2023-02-13T21:13:50.802Z,12.13
2023-02-13T21:16:23.399Z,12.80
2023-02-13T21:18:52.859Z,14.80
2023-02-13T21:21:21.139Z,12.77
2023-02-13T21:23:48.502Z,13.07
2023-02-13T21:26:17.149Z,12.85
2023-02-13T21:28:46.065Z,13.68
2023-02-13T21:31:16.612Z,13.65
2023-02-13T21:33:43.600Z,13.40
2023-02-13T21:36:11.830Z,13.23
2023-02-13T21:38:39.893Z,14.10
2023-02-13T21:41:09.507Z,13.50
2023-02-13T21:43:37.700Z,14.07
2023-02-13T21:46:12.994Z,15.55
2023-02-13T21:48:40.649Z,16.50
2023-02-13T21:51:12.708Z,16.00
2023-02-13T21:53:39.893Z,18.48
2023-02-13T21:56:10.833Z,18.25
2023-02-13T21:58:39.505Z,16.98
2023-02-13T22:01:26.378Z,16.88
2023-02-13T22:03:56.419Z,15.07
2023-02-13T22:06:24.597Z,15.90
2023-02-13T22:09:00.090Z,16.35
2023-02-13T22:11:27.749Z,17.73
2023-02-13T22:14:01.628Z,18.38
2023-02-13T22:16:29.608Z,17.35
2023-02-13T22:18:56.390Z,16.83
2023-02-13T22:21:25.088Z,18.83
2023-02-13T22:23:52.177Z,20.25
2023-02-13T22:26:24.743Z,17.42
2023-02-13T22:28:52.595Z,15.48
2023-02-13T22:31:20.775Z,16.23
2023-02-13T22:33:58.471Z,17.48
2023-02-13T22:36:29.673Z,16.00
2023-02-13T22:38:56.351Z,15.68
2023-02-13T22:41:24.896Z,17.65
2023-02-13T22:43:52.183Z,15.73
2023-02-13T22:46:22.984Z,15.25
2023-02-13T22:48:52.028Z,15.45
2023-02-13T22:51:22.149Z,15.27
2023-02-13T22:53:49.509Z,14.85
2023-02-13T22:56:16.522Z,15.40
2023-02-13T22:58:43.130Z,14.80
2023-02-13T23:01:15.233Z,14.70
2023-02-13T23:03:42.264Z,13.82
2023-02-13T23:06:11.396Z,14.40
2023-02-13T23:08:38.939Z,14.68
2023-02-13T23:11:26.694Z,14.35
2023-02-13T23:13:53.743Z,13.80
2023-02-13T23:16:20.664Z,13.80
2023-02-13T23:18:52.328Z,14.40
2023-02-13T23:21:19.691Z,13.93
2023-02-13T23:23:46.500Z,14.93
2023-02-13T23:26:13.132Z,14.65
2023-02-13T23:28:39.799Z,14.93
2023-02-13T23:31:06.681Z,14.90
2023-02-13T23:33:33.611Z,15.00
2023-02-13T23:36:00.253Z,14.30
2023-02-13T23:38:27.576Z,13.90
2023-02-13T23:40:54.296Z,14.95
2023-02-13T23:43:20.951Z,14.13
2023-02-13T23:45:47.656Z,13.80
2023-02-13T23:48:14.407Z,14.00
2023-02-13T23:50:42.236Z,13.50
2023-02-13T23:53:08.981Z,14.32
2023-02-13T23:55:35.658Z,13.85
2023-02-13T23:58:02.391Z,14.35
